sensor_id;sensor_type;location;lat;lon;timestamp;P1;durP1;ratioP1;P2;durP2;ratioP2
55218;SDS011;65463;43.864;20.136;2024-01-16T00:00:57;0.80;;;0.65;;
55218;SDS011;65463;43.864;20.136;2024-01-16T00:03:23;2.13;;;1.15;;
55218;SDS011;65463;43.864;20.136;2024-01-16T00:05:50;1.58;;;1.00;;
55218;SDS011;65463;43.864;20.136;2024-01-16T00:08:16;2.85;;;1.45;;
55218;SDS011;65463;43.864;20.136;2024-01-16T00:10:45;1.75;;;1.30;;
55218;SDS011;65463;43.864;20.136;2024-01-16T00:13:11;1.20;;;0.73;;
55218;SDS011;65463;43.864;20.136;2024-01-16T00:15:37;1.70;;;0.93;;
55218;SDS011;65463;43.864;20.136;2024-01-16T00:18:06;3.20;;;1.60;;
55218;SDS011;65463;43.864;20.136;2024-01-16T00:20:33;5.13;;;2.80;;
55218;SDS011;65463;43.864;20.136;2024-01-16T00:23:02;2.08;;;1.20;;
55218;SDS011;65463;43.864;20.136;2024-01-16T00:25:28;2.17;;;1.00;;
55218;SDS011;65463;43.864;20.136;2024-01-16T00:27:54;2.30;;;0.98;;
55218;SDS011;65463;43.864;20.136;2024-01-16T00:30:23;2.88;;;1.40;;
55218;SDS011;65463;43.864;20.136;2024-01-16T00:32:49;2.45;;;1.15;;
55218;SDS011;65463;43.864;20.136;2024-01-16T00:35:18;5.50;;;2.42;;
55218;SDS011;65463;43.864;20.136;2024-01-16T00:37:50;5.10;;;2.20;;
55218;SDS011;65463;43.864;20.136;2024-01-16T00:40:16;7.55;;;3.00;;
55218;SDS011;65463;43.864;20.136;2024-01-16T00:42:42;8.25;;;3.13;;
55218;SDS011;65463;43.864;20.136;2024-01-16T00:45:08;5.18;;;3.00;;
55218;SDS011;65463;43.864;20.136;2024-01-16T00:47:35;13.52;;;5.75;;
55218;SDS011;65463;43.864;20.136;2024-01-16T00:50:01;18.30;;;8.40;;
55218;SDS011;65463;43.864;20.136;2024-01-16T00:52:27;18.80;;;9.25;;
55218;SDS011;65463;43.864;20.136;2024-01-16T00:54:53;21.60;;;11.18;;
55218;SDS011;65463;43.864;20.136;2024-01-16T00:57:20;21.27;;;11.25;;
55218;SDS011;65463;43.864;20.136;2024-01-16T00:59:47;29.23;;;15.25;;
55218;SDS011;65463;43.864;20.136;2024-01-16T01:02:15;29.73;;;16.13;;
55218;SDS011;65463;43.864;20.136;2024-01-16T01:04:42;28.50;;;15.35;;
55218;SDS011;65463;43.864;20.136;2024-01-16T01:07:08;29.55;;;15.27;;
55218;SDS011;65463;43.864;20.136;2024-01-16T01:09:34;30.05;;;15.52;;
55218;SDS011;65463;43.864;20.136;2024-01-16T01:12:03;30.88;;;15.18;;
55218;SDS011;65463;43.864;20.136;2024-01-16T01:14:32;31.97;;;15.83;;
55218;SDS011;65463;43.864;20.136;2024-01-16T01:16:59;29.73;;;15.82;;
55218;SDS011;65463;43.864;20.136;2024-01-16T01:19:25;29.33;;;14.90;;
55218;SDS011;65463;43.864;20.136;2024-01-16T01:21:51;30.33;;;15.13;;
55218;SDS011;65463;43.864;20.136;2024-01-16T01:24:18;30.10;;;15.63;;
55218;SDS011;65463;43.864;20.136;2024-01-16T01:26:44;30.77;;;15.02;;
55218;SDS011;65463;43.864;20.136;2024-01-16T01:29:10;21.00;;;9.18;;
55218;SDS011;65463;43.864;20.136;2024-01-16T01:31:36;25.52;;;12.90;;
55218;SDS011;65463;43.864;20.136;2024-01-16T01:34:02;22.08;;;11.20;;
55218;SDS011;65463;43.864;20.136;2024-01-16T01:36:32;21.27;;;10.65;;
55218;SDS011;65463;43.864;20.136;2024-01-16T01:38:58;21.67;;;11.38;;
55218;SDS011;65463;43.864;20.136;2024-01-16T01:41:28;28.87;;;13.63;;
55218;SDS011;65463;43.864;20.136;2024-01-16T01:43:57;28.48;;;13.63;;
55218;SDS011;65463;43.864;20.136;2024-01-16T01:46:23;28.35;;;12.95;;
55218;SDS011;65463;43.864;20.136;2024-01-16T01:48:49;26.48;;;14.30;;
55218;SDS011;65463;43.864;20.136;2024-01-16T01:51:19;27.80;;;14.43;;
55218;SDS011;65463;43.864;20.136;2024-01-16T01:53:46;35.65;;;18.58;;
55218;SDS011;65463;43.864;20.136;2024-01-16T01:56:16;41.47;;;21.60;;
55218;SDS011;65463;43.864;20.136;2024-01-16T01:58:43;43.13;;;21.48;;
55218;SDS011;65463;43.864;20.136;2024-01-16T02:01:10;43.92;;;20.67;;
55218;SDS011;65463;43.864;20.136;2024-01-16T02:03:42;46.88;;;19.95;;
55218;SDS011;65463;43.864;20.136;2024-01-16T02:06:09;32.22;;;13.60;;
55218;SDS011;65463;43.864;20.136;2024-01-16T02:08:39;32.93;;;14.50;;
55218;SDS011;65463;43.864;20.136;2024-01-16T02:11:05;29.98;;;15.27;;
55218;SDS011;65463;43.864;20.136;2024-01-16T02:13:32;33.85;;;15.98;;
55218;SDS011;65463;43.864;20.136;2024-01-16T02:15:58;39.67;;;18.05;;
55218;SDS011;65463;43.864;20.136;2024-01-16T02:18:28;36.22;;;18.52;;
55218;SDS011;65463;43.864;20.136;2024-01-16T02:20:59;40.33;;;20.15;;
55218;SDS011;65463;43.864;20.136;2024-01-16T02:23:28;53.53;;;23.85;;
55218;SDS011;65463;43.864;20.136;2024-01-16T02:25:55;42.83;;;19.50;;
55218;SDS011;65463;43.864;20.136;2024-01-16T02:28:21;44.70;;;20.92;;
55218;SDS011;65463;43.864;20.136;2024-01-16T02:30:48;38.63;;;18.38;;
55218;SDS011;65463;43.864;20.136;2024-01-16T02:33:16;36.05;;;18.98;;
55218;SDS011;65463;43.864;20.136;2024-01-16T02:35:43;52.40;;;23.63;;
55218;SDS011;65463;43.864;20.136;2024-01-16T02:38:09;46.88;;;21.27;;
55218;SDS011;65463;43.864;20.136;2024-01-16T02:40:38;36.67;;;17.60;;
55218;SDS011;65463;43.864;20.136;2024-01-16T02:43:04;32.42;;;17.17;;
55218;SDS011;65463;43.864;20.136;2024-01-16T02:45:31;38.08;;;19.15;;
55218;SDS011;65463;43.864;20.136;2024-01-16T02:47:57;38.30;;;19.23;;
55218;SDS011;65463;43.864;20.136;2024-01-16T02:50:24;43.35;;;20.40;;
55218;SDS011;65463;43.864;20.136;2024-01-16T02:52:50;50.45;;;23.48;;
55218;SDS011;65463;43.864;20.136;2024-01-16T02:55:16;48.90;;;23.35;;
55218;SDS011;65463;43.864;20.136;2024-01-16T02:57:43;55.85;;;24.05;;
55218;SDS011;65463;43.864;20.136;2024-01-16T03:00:09;51.53;;;21.42;;
55218;SDS011;65463;43.864;20.136;2024-01-16T03:02:39;45.13;;;22.73;;
55218;SDS011;65463;43.864;20.136;2024-01-16T03:05:05;61.08;;;26.38;;
55218;SDS011;65463;43.864;20.136;2024-01-16T03:07:34;57.05;;;24.38;;
55218;SDS011;65463;43.864;20.136;2024-01-16T03:10:00;76.30;;;30.85;;
55218;SDS011;65463;43.864;20.136;2024-01-16T03:12:27;45.80;;;21.08;;
55218;SDS011;65463;43.864;20.136;2024-01-16T03:14:53;38.20;;;18.83;;
55218;SDS011;65463;43.864;20.136;2024-01-16T03:17:19;45.88;;;20.85;;
55218;SDS011;65463;43.864;20.136;2024-01-16T03:19:48;37.53;;;17.95;;
55218;SDS011;65463;43.864;20.136;2024-01-16T03:22:14;39.92;;;18.58;;
55218;SDS011;65463;43.864;20.136;2024-01-16T03:24:40;35.60;;;17.52;;
55218;SDS011;65463;43.864;20.136;2024-01-16T03:27:06;35.28;;;17.42;;
55218;SDS011;65463;43.864;20.136;2024-01-16T03:29:33;37.70;;;17.58;;
55218;SDS011;65463;43.864;20.136;2024-01-16T03:31:59;37.03;;;17.67;;
55218;SDS011;65463;43.864;20.136;2024-01-16T03:34:26;36.65;;;16.73;;
55218;SDS011;65463;43.864;20.136;2024-01-16T03:36:52;33.47;;;16.40;;
55218;SDS011;65463;43.864;20.136;2024-01-16T03:39:18;33.80;;;16.52;;
55218;SDS011;65463;43.864;20.136;2024-01-16T03:41:47;34.10;;;16.13;;
55218;SDS011;65463;43.864;20.136;2024-01-16T03:44:16;29.55;;;15.45;;
55218;SDS011;65463;43.864;20.136;2024-01-16T03:46:42;33.15;;;15.80;;
55218;SDS011;65463;43.864;20.136;2024-01-16T03:49:09;30.48;;;16.52;;
55218;SDS011;65463;43.864;20.136;2024-01-16T03:51:35;35.10;;;17.55;;
55218;SDS011;65463;43.864;20.136;2024-01-16T03:54:01;39.10;;;19.00;;
55218;SDS011;65463;43.864;20.136;2024-01-16T03:56:28;43.58;;;19.13;;
55218;SDS011;65463;43.864;20.136;2024-01-16T03:58:54;43.50;;;20.48;;
55218;SDS011;65463;43.864;20.136;2024-01-16T04:01:29;37.38;;;18.48;;
55218;SDS011;65463;43.864;20.136;2024-01-16T04:03:56;40.15;;;18.75;;
55218;SDS011;65463;43.864;20.136;2024-01-16T04:06:22;35.80;;;16.48;;
55218;SDS011;65463;43.864;20.136;2024-01-16T04:08:48;34.83;;;15.88;;
55218;SDS011;65463;43.864;20.136;2024-01-16T04:11:17;34.40;;;17.70;;
55218;SDS011;65463;43.864;20.136;2024-01-16T04:13:43;41.58;;;19.80;;
55218;SDS011;65463;43.864;20.136;2024-01-16T04:16:11;31.88;;;15.93;;
55218;SDS011;65463;43.864;20.136;2024-01-16T04:18:41;26.70;;;14.00;;
55218;SDS011;65463;43.864;20.136;2024-01-16T04:21:08;27.52;;;13.75;;
55218;SDS011;65463;43.864;20.136;2024-01-16T04:23:34;20.23;;;11.30;;
55218;SDS011;65463;43.864;20.136;2024-01-16T04:26:00;18.00;;;9.98;;
55218;SDS011;65463;43.864;20.136;2024-01-16T04:28:27;18.02;;;8.93;;
55218;SDS011;65463;43.864;20.136;2024-01-16T04:30:53;14.25;;;7.97;;
55218;SDS011;65463;43.864;20.136;2024-01-16T04:33:19;15.27;;;8.07;;
55218;SDS011;65463;43.864;20.136;2024-01-16T04:35:45;20.30;;;8.85;;
55218;SDS011;65463;43.864;20.136;2024-01-16T04:38:12;19.20;;;9.43;;
55218;SDS011;65463;43.864;20.136;2024-01-16T04:40:38;14.82;;;8.18;;
55218;SDS011;65463;43.864;20.136;2024-01-16T04:43:04;11.95;;;6.53;;
55218;SDS011;65463;43.864;20.136;2024-01-16T04:45:31;10.02;;;6.38;;
55218;SDS011;65463;43.864;20.136;2024-01-16T04:47:57;12.93;;;7.50;;
55218;SDS011;65463;43.864;20.136;2024-01-16T04:50:24;15.00;;;8.23;;
55218;SDS011;65463;43.864;20.136;2024-01-16T04:52:56;15.10;;;8.55;;
55218;SDS011;65463;43.864;20.136;2024-01-16T04:55:25;15.38;;;8.50;;
55218;SDS011;65463;43.864;20.136;2024-01-16T04:57:51;13.82;;;7.85;;
55218;SDS011;65463;43.864;20.136;2024-01-16T05:00:20;15.52;;;9.15;;
55218;SDS011;65463;43.864;20.136;2024-01-16T05:02:47;14.63;;;8.10;;
55218;SDS011;65463;43.864;20.136;2024-01-16T05:05:16;12.73;;;7.57;;
55218;SDS011;65463;43.864;20.136;2024-01-16T05:07:42;13.50;;;7.68;;
55218;SDS011;65463;43.864;20.136;2024-01-16T05:10:09;13.52;;;7.97;;
55218;SDS011;65463;43.864;20.136;2024-01-16T05:12:39;23.48;;;11.10;;
55218;SDS011;65463;43.864;20.136;2024-01-16T05:15:05;22.17;;;11.07;;
55218;SDS011;65463;43.864;20.136;2024-01-16T05:17:32;18.20;;;9.23;;
55218;SDS011;65463;43.864;20.136;2024-01-16T05:19:59;16.25;;;8.82;;
55218;SDS011;65463;43.864;20.136;2024-01-16T05:22:25;14.30;;;8.18;;
55218;SDS011;65463;43.864;20.136;2024-01-16T05:24:51;14.23;;;7.80;;
55218;SDS011;65463;43.864;20.136;2024-01-16T05:27:18;13.18;;;7.75;;
55218;SDS011;65463;43.864;20.136;2024-01-16T05:29:44;16.60;;;7.90;;
55218;SDS011;65463;43.864;20.136;2024-01-16T05:32:11;14.43;;;7.50;;
55218;SDS011;65463;43.864;20.136;2024-01-16T05:34:37;28.30;;;13.32;;
55218;SDS011;65463;43.864;20.136;2024-01-16T05:37:08;36.92;;;17.45;;
55218;SDS011;65463;43.864;20.136;2024-01-16T05:39:34;30.15;;;15.05;;
55218;SDS011;65463;43.864;20.136;2024-01-16T05:42:01;32.10;;;16.02;;
55218;SDS011;65463;43.864;20.136;2024-01-16T05:44:28;66.90;;;31.17;;
55218;SDS011;65463;43.864;20.136;2024-01-16T05:46:54;74.97;;;37.88;;
55218;SDS011;65463;43.864;20.136;2024-01-16T05:49:20;77.38;;;38.28;;
55218;SDS011;65463;43.864;20.136;2024-01-16T05:51:47;80.20;;;38.22;;
55218;SDS011;65463;43.864;20.136;2024-01-16T05:54:18;68.85;;;34.10;;
55218;SDS011;65463;43.864;20.136;2024-01-16T05:56:44;73.10;;;35.28;;
55218;SDS011;65463;43.864;20.136;2024-01-16T05:59:10;81.47;;;36.97;;
55218;SDS011;65463;43.864;20.136;2024-01-16T06:01:37;52.72;;;25.05;;
55218;SDS011;65463;43.864;20.136;2024-01-16T06:04:03;43.22;;;21.40;;
55218;SDS011;65463;43.864;20.136;2024-01-16T06:06:30;35.78;;;18.45;;
55218;SDS011;65463;43.864;20.136;2024-01-16T06:08:59;36.88;;;19.25;;
55218;SDS011;65463;43.864;20.136;2024-01-16T06:11:33;47.35;;;22.00;;
55218;SDS011;65463;43.864;20.136;2024-01-16T06:14:00;37.53;;;19.65;;
55218;SDS011;65463;43.864;20.136;2024-01-16T06:16:26;29.27;;;15.48;;
55218;SDS011;65463;43.864;20.136;2024-01-16T06:18:52;44.30;;;22.23;;
55218;SDS011;65463;43.864;20.136;2024-01-16T06:21:19;37.38;;;19.10;;
55218;SDS011;65463;43.864;20.136;2024-01-16T06:23:45;35.50;;;18.75;;
55218;SDS011;65463;43.864;20.136;2024-01-16T06:26:11;42.72;;;21.13;;
55218;SDS011;65463;43.864;20.136;2024-01-16T06:28:40;41.33;;;21.02;;
55218;SDS011;65463;43.864;20.136;2024-01-16T06:31:08;39.30;;;19.45;;
55218;SDS011;65463;43.864;20.136;2024-01-16T06:33:34;42.78;;;21.77;;
55218;SDS011;65463;43.864;20.136;2024-01-16T06:36:02;45.55;;;21.67;;
55218;SDS011;65463;43.864;20.136;2024-01-16T06:38:31;41.70;;;20.17;;
55218;SDS011;65463;43.864;20.136;2024-01-16T06:40:57;39.65;;;20.60;;
55218;SDS011;65463;43.864;20.136;2024-01-16T06:43:24;40.67;;;20.17;;
55218;SDS011;65463;43.864;20.136;2024-01-16T06:45:53;33.80;;;16.88;;
55218;SDS011;65463;43.864;20.136;2024-01-16T06:48:19;43.22;;;19.85;;
55218;SDS011;65463;43.864;20.136;2024-01-16T06:50:45;33.78;;;17.45;;
55218;SDS011;65463;43.864;20.136;2024-01-16T06:53:12;45.10;;;22.23;;
55218;SDS011;65463;43.864;20.136;2024-01-16T06:55:38;37.30;;;19.00;;
55218;SDS011;65463;43.864;20.136;2024-01-16T06:58:04;36.45;;;18.92;;
55218;SDS011;65463;43.864;20.136;2024-01-16T07:00:30;67.80;;;18.63;;
55218;SDS011;65463;43.864;20.136;2024-01-16T07:02:57;36.70;;;18.88;;
55218;SDS011;65463;43.864;20.136;2024-01-16T07:05:23;18.70;;;10.70;;
55218;SDS011;65463;43.864;20.136;2024-01-16T07:07:49;17.70;;;10.43;;
55218;SDS011;65463;43.864;20.136;2024-01-16T07:10:15;23.83;;;13.27;;
55218;SDS011;65463;43.864;20.136;2024-01-16T07:12:47;34.33;;;19.92;;
55218;SDS011;65463;43.864;20.136;2024-01-16T07:15:14;29.13;;;17.05;;
55218;SDS011;65463;43.864;20.136;2024-01-16T07:17:43;31.50;;;17.90;;
55218;SDS011;65463;43.864;20.136;2024-01-16T07:20:10;24.95;;;14.27;;
55218;SDS011;65463;43.864;20.136;2024-01-16T07:22:36;24.02;;;13.95;;
55218;SDS011;65463;43.864;20.136;2024-01-16T07:25:05;27.25;;;14.88;;
55218;SDS011;65463;43.864;20.136;2024-01-16T07:27:31;30.00;;;17.80;;
55218;SDS011;65463;43.864;20.136;2024-01-16T07:29:58;26.38;;;15.55;;
55218;SDS011;65463;43.864;20.136;2024-01-16T07:32:24;85.07;;;22.52;;
55218;SDS011;65463;43.864;20.136;2024-01-16T07:34:50;62.63;;;18.10;;
55218;SDS011;65463;43.864;20.136;2024-01-16T07:37:18;38.95;;;16.33;;
55218;SDS011;65463;43.864;20.136;2024-01-16T07:39:44;37.08;;;16.98;;
55218;SDS011;65463;43.864;20.136;2024-01-16T07:42:10;56.63;;;19.75;;
55218;SDS011;65463;43.864;20.136;2024-01-16T07:44:37;102.28;;;28.17;;
55218;SDS011;65463;43.864;20.136;2024-01-16T07:47:03;93.72;;;25.77;;
55218;SDS011;65463;43.864;20.136;2024-01-16T07:49:29;93.20;;;24.00;;
55218;SDS011;65463;43.864;20.136;2024-01-16T07:51:55;78.00;;;22.25;;
55218;SDS011;65463;43.864;20.136;2024-01-16T07:54:22;79.30;;;20.60;;
55218;SDS011;65463;43.864;20.136;2024-01-16T07:56:49;70.28;;;20.67;;
55218;SDS011;65463;43.864;20.136;2024-01-16T07:59:15;70.85;;;20.50;;
55218;SDS011;65463;43.864;20.136;2024-01-16T08:01:42;74.20;;;23.80;;
55218;SDS011;65463;43.864;20.136;2024-01-16T08:04:08;64.28;;;23.88;;
55218;SDS011;65463;43.864;20.136;2024-01-16T08:06:35;74.85;;;24.10;;
55218;SDS011;65463;43.864;20.136;2024-01-16T08:09:01;59.10;;;23.27;;
55218;SDS011;65463;43.864;20.136;2024-01-16T08:11:27;85.82;;;32.03;;
55218;SDS011;65463;43.864;20.136;2024-01-16T08:13:54;85.07;;;28.75;;
55218;SDS011;65463;43.864;20.136;2024-01-16T08:16:21;77.78;;;31.30;;
55218;SDS011;65463;43.864;20.136;2024-01-16T08:18:47;63.13;;;27.08;;
55218;SDS011;65463;43.864;20.136;2024-01-16T08:21:13;70.53;;;26.88;;
55218;SDS011;65463;43.864;20.136;2024-01-16T08:23:42;61.22;;;26.17;;
55218;SDS011;65463;43.864;20.136;2024-01-16T08:26:10;63.75;;;28.75;;
55218;SDS011;65463;43.864;20.136;2024-01-16T08:28:37;74.07;;;28.48;;
55218;SDS011;65463;43.864;20.136;2024-01-16T08:31:03;67.47;;;30.02;;
55218;SDS011;65463;43.864;20.136;2024-01-16T08:33:29;54.65;;;25.85;;
55218;SDS011;65463;43.864;20.136;2024-01-16T08:35:56;64.32;;;27.17;;
55218;SDS011;65463;43.864;20.136;2024-01-16T08:38:22;50.22;;;24.05;;
55218;SDS011;65463;43.864;20.136;2024-01-16T08:40:49;66.63;;;26.95;;
55218;SDS011;65463;43.864;20.136;2024-01-16T08:43:15;57.25;;;24.55;;
55218;SDS011;65463;43.864;20.136;2024-01-16T08:45:41;66.28;;;25.48;;
55218;SDS011;65463;43.864;20.136;2024-01-16T08:48:07;65.57;;;27.73;;
55218;SDS011;65463;43.864;20.136;2024-01-16T08:50:34;85.22;;;35.47;;
55218;SDS011;65463;43.864;20.136;2024-01-16T08:53:00;220.23;;;87.30;;
55218;SDS011;65463;43.864;20.136;2024-01-16T08:55:26;68.93;;;31.17;;
55218;SDS011;65463;43.864;20.136;2024-01-16T08:57:55;74.68;;;31.08;;
55218;SDS011;65463;43.864;20.136;2024-01-16T09:00:21;56.50;;;27.42;;
55218;SDS011;65463;43.864;20.136;2024-01-16T09:02:50;62.58;;;29.52;;
55218;SDS011;65463;43.864;20.136;2024-01-16T09:05:20;52.40;;;25.70;;
55218;SDS011;65463;43.864;20.136;2024-01-16T09:07:51;63.65;;;28.02;;
55218;SDS011;65463;43.864;20.136;2024-01-16T09:10:18;68.95;;;35.22;;
55218;SDS011;65463;43.864;20.136;2024-01-16T09:12:45;67.25;;;30.35;;
55218;SDS011;65463;43.864;20.136;2024-01-16T09:15:11;49.20;;;23.77;;
55218;SDS011;65463;43.864;20.136;2024-01-16T09:17:37;37.53;;;18.50;;
55218;SDS011;65463;43.864;20.136;2024-01-16T09:20:04;40.88;;;18.33;;
55218;SDS011;65463;43.864;20.136;2024-01-16T09:22:32;36.67;;;17.65;;
55218;SDS011;65463;43.864;20.136;2024-01-16T09:24:58;42.63;;;18.80;;
55218;SDS011;65463;43.864;20.136;2024-01-16T09:27:24;47.10;;;19.05;;
55218;SDS011;65463;43.864;20.136;2024-01-16T09:29:50;42.67;;;19.55;;
55218;SDS011;65463;43.864;20.136;2024-01-16T09:32:17;44.90;;;20.83;;
55218;SDS011;65463;43.864;20.136;2024-01-16T09:34:44;47.22;;;20.95;;
55218;SDS011;65463;43.864;20.136;2024-01-16T09:37:10;35.08;;;16.20;;
55218;SDS011;65463;43.864;20.136;2024-01-16T09:39:40;53.47;;;24.08;;
55218;SDS011;65463;43.864;20.136;2024-01-16T09:42:06;30.73;;;15.40;;
55218;SDS011;65463;43.864;20.136;2024-01-16T09:44:33;32.13;;;14.63;;
55218;SDS011;65463;43.864;20.136;2024-01-16T09:46:59;23.52;;;12.18;;
55218;SDS011;65463;43.864;20.136;2024-01-16T09:49:29;30.27;;;14.18;;
55218;SDS011;65463;43.864;20.136;2024-01-16T09:52:04;27.60;;;12.48;;
55218;SDS011;65463;43.864;20.136;2024-01-16T09:54:31;24.35;;;11.95;;
55218;SDS011;65463;43.864;20.136;2024-01-16T09:56:58;27.02;;;12.57;;
55218;SDS011;65463;43.864;20.136;2024-01-16T09:59:24;36.20;;;14.93;;
55218;SDS011;65463;43.864;20.136;2024-01-16T10:01:54;22.75;;;11.60;;
55218;SDS011;65463;43.864;20.136;2024-01-16T10:04:20;20.08;;;10.85;;
55218;SDS011;65463;43.864;20.136;2024-01-16T10:06:47;19.58;;;10.52;;
55218;SDS011;65463;43.864;20.136;2024-01-16T10:09:13;17.50;;;8.95;;
55218;SDS011;65463;43.864;20.136;2024-01-16T10:11:41;16.65;;;7.68;;
55218;SDS011;65463;43.864;20.136;2024-01-16T10:14:10;17.75;;;8.90;;
55218;SDS011;65463;43.864;20.136;2024-01-16T10:16:55;15.38;;;8.55;;
55218;SDS011;65463;43.864;20.136;2024-01-16T10:19:26;16.80;;;8.30;;
55218;SDS011;65463;43.864;20.136;2024-01-16T10:21:52;20.45;;;8.98;;
55218;SDS011;65463;43.864;20.136;2024-01-16T10:24:21;19.45;;;8.75;;
55218;SDS011;65463;43.864;20.136;2024-01-16T10:26:58;20.42;;;8.65;;
55218;SDS011;65463;43.864;20.136;2024-01-16T10:29:31;45.40;;;23.15;;
55218;SDS011;65463;43.864;20.136;2024-01-16T10:31:58;61.13;;;28.33;;
55218;SDS011;65463;43.864;20.136;2024-01-16T10:34:24;36.58;;;12.13;;
55218;SDS011;65463;43.864;20.136;2024-01-16T10:36:51;28.10;;;11.35;;
55218;SDS011;65463;43.864;20.136;2024-01-16T10:39:18;24.08;;;7.78;;
55218;SDS011;65463;43.864;20.136;2024-01-16T10:41:58;28.13;;;9.63;;
55218;SDS011;65463;43.864;20.136;2024-01-16T10:44:25;13.40;;;4.75;;
55218;SDS011;65463;43.864;20.136;2024-01-16T10:47:12;20.48;;;9.10;;
55218;SDS011;65463;43.864;20.136;2024-01-16T10:49:38;23.08;;;8.95;;
55218;SDS011;65463;43.864;20.136;2024-01-16T10:52:06;20.00;;;8.13;;
55218;SDS011;65463;43.864;20.136;2024-01-16T10:54:43;24.25;;;7.65;;
55218;SDS011;65463;43.864;20.136;2024-01-16T10:57:14;21.77;;;8.05;;
55218;SDS011;65463;43.864;20.136;2024-01-16T11:02:07;19.02;;;6.93;;
55218;SDS011;65463;43.864;20.136;2024-01-16T11:04:35;18.92;;;6.90;;
55218;SDS011;65463;43.864;20.136;2024-01-16T11:07:02;23.77;;;7.95;;
55218;SDS011;65463;43.864;20.136;2024-01-16T11:09:30;22.48;;;6.78;;
55218;SDS011;65463;43.864;20.136;2024-01-16T11:11:57;18.75;;;5.68;;
55218;SDS011;65463;43.864;20.136;2024-01-16T11:14:24;19.88;;;4.90;;
55218;SDS011;65463;43.864;20.136;2024-01-16T11:16:53;15.63;;;5.32;;
55218;SDS011;65463;43.864;20.136;2024-01-16T11:19:21;19.85;;;5.20;;
55218;SDS011;65463;43.864;20.136;2024-01-16T11:21:48;16.27;;;5.10;;
55218;SDS011;65463;43.864;20.136;2024-01-16T11:24:16;12.27;;;3.65;;
55218;SDS011;65463;43.864;20.136;2024-01-16T11:26:43;14.77;;;4.60;;
55218;SDS011;65463;43.864;20.136;2024-01-16T11:31:54;19.42;;;4.60;;
55218;SDS011;65463;43.864;20.136;2024-01-16T11:37:09;15.77;;;4.97;;
55218;SDS011;65463;43.864;20.136;2024-01-16T11:39:38;15.88;;;5.20;;
55218;SDS011;65463;43.864;20.136;2024-01-16T11:42:05;11.30;;;4.60;;
55218;SDS011;65463;43.864;20.136;2024-01-16T11:47:18;20.85;;;12.85;;
55218;SDS011;65463;43.864;20.136;2024-01-16T11:49:45;7.82;;;4.50;;
55218;SDS011;65463;43.864;20.136;2024-01-16T11:52:12;15.10;;;6.78;;
55218;SDS011;65463;43.864;20.136;2024-01-16T11:54:39;12.25;;;4.25;;
55218;SDS011;65463;43.864;20.136;2024-01-16T11:57:19;10.27;;;4.00;;
55218;SDS011;65463;43.864;20.136;2024-01-16T11:59:57;8.75;;;4.68;;
55218;SDS011;65463;43.864;20.136;2024-01-16T12:02:55;11.10;;;5.82;;
55218;SDS011;65463;43.864;20.136;2024-01-16T12:05:22;12.18;;;5.63;;
55218;SDS011;65463;43.864;20.136;2024-01-16T12:07:50;15.23;;;6.25;;
55218;SDS011;65463;43.864;20.136;2024-01-16T12:10:17;10.50;;;5.88;;
55218;SDS011;65463;43.864;20.136;2024-01-16T12:12:44;11.48;;;5.30;;
55218;SDS011;65463;43.864;20.136;2024-01-16T12:15:14;9.57;;;4.97;;
55218;SDS011;65463;43.864;20.136;2024-01-16T12:18:01;9.05;;;5.25;;
55218;SDS011;65463;43.864;20.136;2024-01-16T12:20:31;7.85;;;4.53;;
55218;SDS011;65463;43.864;20.136;2024-01-16T12:22:59;7.32;;;4.35;;
55218;SDS011;65463;43.864;20.136;2024-01-16T12:25:29;8.70;;;4.65;;
55218;SDS011;65463;43.864;20.136;2024-01-16T12:27:56;6.32;;;3.58;;
55218;SDS011;65463;43.864;20.136;2024-01-16T12:30:32;12.73;;;5.68;;
55218;SDS011;65463;43.864;20.136;2024-01-16T12:33:02;13.63;;;7.55;;
55218;SDS011;65463;43.864;20.136;2024-01-16T12:35:29;11.90;;;7.30;;
55218;SDS011;65463;43.864;20.136;2024-01-16T12:38:01;16.88;;;5.95;;
55218;SDS011;65463;43.864;20.136;2024-01-16T12:40:28;18.80;;;9.23;;
55218;SDS011;65463;43.864;20.136;2024-01-16T12:42:55;34.47;;;7.15;;
55218;SDS011;65463;43.864;20.136;2024-01-16T12:45:22;25.42;;;8.40;;
55218;SDS011;65463;43.864;20.136;2024-01-16T12:47:51;33.22;;;7.55;;
55218;SDS011;65463;43.864;20.136;2024-01-16T12:50:21;12.50;;;5.30;;
55218;SDS011;65463;43.864;20.136;2024-01-16T12:52:59;9.65;;;5.07;;
55218;SDS011;65463;43.864;20.136;2024-01-16T12:55:26;6.85;;;4.22;;
55218;SDS011;65463;43.864;20.136;2024-01-16T13:00:40;8.52;;;4.40;;
55218;SDS011;65463;43.864;20.136;2024-01-16T13:03:06;7.95;;;4.30;;
55218;SDS011;65463;43.864;20.136;2024-01-16T13:05:35;18.00;;;7.90;;
55218;SDS011;65463;43.864;20.136;2024-01-16T13:08:04;7.63;;;3.30;;
55218;SDS011;65463;43.864;20.136;2024-01-16T13:10:31;10.07;;;4.18;;
55218;SDS011;65463;43.864;20.136;2024-01-16T13:13:16;27.13;;;5.63;;
55218;SDS011;65463;43.864;20.136;2024-01-16T13:15:43;13.27;;;4.35;;
55218;SDS011;65463;43.864;20.136;2024-01-16T13:20:48;15.73;;;3.95;;
55218;SDS011;65463;43.864;20.136;2024-01-16T13:23:15;8.18;;;4.05;;
55218;SDS011;65463;43.864;20.136;2024-01-16T13:25:42;4.90;;;2.95;;
55218;SDS011;65463;43.864;20.136;2024-01-16T13:28:15;5.03;;;2.63;;
55218;SDS011;65463;43.864;20.136;2024-01-16T13:30:42;4.28;;;2.50;;
55218;SDS011;65463;43.864;20.136;2024-01-16T13:33:09;4.68;;;2.47;;
55218;SDS011;65463;43.864;20.136;2024-01-16T13:35:39;3.67;;;2.20;;
55218;SDS011;65463;43.864;20.136;2024-01-16T13:38:06;4.03;;;2.42;;
55218;SDS011;65463;43.864;20.136;2024-01-16T13:40:33;4.00;;;1.88;;
55218;SDS011;65463;43.864;20.136;2024-01-16T13:43:03;3.60;;;1.77;;
55218;SDS011;65463;43.864;20.136;2024-01-16T13:45:29;2.28;;;1.45;;
55218;SDS011;65463;43.864;20.136;2024-01-16T13:47:56;3.50;;;1.60;;
55218;SDS011;65463;43.864;20.136;2024-01-16T13:50:23;5.78;;;3.65;;
55218;SDS011;65463;43.864;20.136;2024-01-16T13:52:49;3.22;;;1.45;;
55218;SDS011;65463;43.864;20.136;2024-01-16T13:55:21;2.25;;;1.20;;
55218;SDS011;65463;43.864;20.136;2024-01-16T13:57:52;1.52;;;1.13;;
55218;SDS011;65463;43.864;20.136;2024-01-16T14:00:18;2.08;;;1.20;;
55218;SDS011;65463;43.864;20.136;2024-01-16T14:02:45;2.55;;;1.50;;
55218;SDS011;65463;43.864;20.136;2024-01-16T14:05:12;2.45;;;1.40;;
55218;SDS011;65463;43.864;20.136;2024-01-16T14:07:46;2.63;;;1.20;;
55218;SDS011;65463;43.864;20.136;2024-01-16T14:10:15;2.65;;;1.50;;
55218;SDS011;65463;43.864;20.136;2024-01-16T14:12:42;2.22;;;1.30;;
55218;SDS011;65463;43.864;20.136;2024-01-16T14:15:12;2.33;;;1.35;;
55218;SDS011;65463;43.864;20.136;2024-01-16T14:17:47;11.75;;;6.57;;
55218;SDS011;65463;43.864;20.136;2024-01-16T14:20:14;9.80;;;6.07;;
55218;SDS011;65463;43.864;20.136;2024-01-16T14:22:41;14.23;;;8.65;;
55218;SDS011;65463;43.864;20.136;2024-01-16T14:25:11;9.75;;;5.60;;
55218;SDS011;65463;43.864;20.136;2024-01-16T14:27:39;15.30;;;6.60;;
55218;SDS011;65463;43.864;20.136;2024-01-16T14:30:07;23.08;;;9.15;;
55218;SDS011;65463;43.864;20.136;2024-01-16T14:32:36;33.00;;;11.80;;
55218;SDS011;65463;43.864;20.136;2024-01-16T14:35:03;14.60;;;4.20;;